createdAt,value
2018-11-04T00:01:42.651Z,16.23
2018-11-04T00:04:12.694Z,16.03
2018-11-04T00:06:42.362Z,16.67
2018-11-04T00:09:12.531Z,16.33
2018-11-04T00:11:42.525Z,17.67
2018-11-04T00:14:12.467Z,16.00
2018-11-04T00:16:43.171Z,17.10
2018-11-04T00:19:18.388Z,16.70
2018-11-04T00:21:48.066Z,16.37
2018-11-04T00:24:17.998Z,14.60
2018-11-04T00:26:49.192Z,16.20
2018-11-04T00:29:18.834Z,16.10
2018-11-04T00:31:54.384Z,16.33
2018-11-04T00:34:24.106Z,16.57
2018-11-04T00:36:55.059Z,17.47
2018-11-04T00:39:29.546Z,14.80
2018-11-04T00:42:01.325Z,14.33
2018-11-04T00:44:33.055Z,14.70
2018-11-04T00:47:04.195Z,14.90
2018-11-04T00:49:35.452Z,13.37
2018-11-04T00:52:05.703Z,15.67
2018-11-04T00:54:35.333Z,16.63
2018-11-04T00:57:05.212Z,18.30
2018-11-04T00:59:35.223Z,14.50
2018-11-04T01:02:06.351Z,18.97
2018-11-04T01:04:36.281Z,15.70
2018-11-04T01:07:06.196Z,16.00
2018-11-04T01:09:35.827Z,16.33
2018-11-04T01:12:05.604Z,16.20
2018-11-04T01:14:35.460Z,17.43
2018-11-04T01:17:07.278Z,16.47
2018-11-04T01:19:37.061Z,16.47
2018-11-04T01:22:06.803Z,15.50
2018-11-04T01:24:36.702Z,17.20
2018-11-04T01:27:06.548Z,18.40
2018-11-04T01:29:36.310Z,19.40
2018-11-04T01:32:06.746Z,12.23
2018-11-04T01:34:36.459Z,17.57
2018-11-04T01:37:06.243Z,14.77
2018-11-04T01:39:36.071Z,18.20
2018-11-04T01:42:05.999Z,14.00
2018-11-04T01:44:35.580Z,17.90
2018-11-04T01:47:05.867Z,14.20
2018-11-04T01:49:35.620Z,17.13
2018-11-04T01:52:05.527Z,15.93
2018-11-04T01:54:35.237Z,15.53
2018-11-04T01:57:04.972Z,14.40
2018-11-04T01:59:34.625Z,20.63
2018-11-04T02:02:04.672Z,14.53
2018-11-04T02:04:34.437Z,17.83
2018-11-04T02:07:04.135Z,17.07
2018-11-04T02:09:33.828Z,16.67
2018-11-04T02:12:03.863Z,16.70
2018-11-04T02:14:33.487Z,18.80
2018-11-04T02:17:03.777Z,15.40
2018-11-04T02:19:33.981Z,17.03
2018-11-04T02:22:03.726Z,19.87
2018-11-04T02:24:33.407Z,17.23
2018-11-04T02:27:03.551Z,20.07
2018-11-04T02:29:33.365Z,13.93
2018-11-04T02:32:03.068Z,15.80
2018-11-04T02:34:33.018Z,19.10
2018-11-04T02:37:02.686Z,13.23
2018-11-04T02:39:32.338Z,15.80
2018-11-04T02:42:02.352Z,19.77
2018-11-04T02:44:32.021Z,18.40
2018-11-04T02:47:01.874Z,17.80
2018-11-04T02:49:31.387Z,17.50
2018-11-04T02:52:02.413Z,17.33
2018-11-04T02:54:32.094Z,15.60
2018-11-04T02:57:01.743Z,15.23
2018-11-04T02:59:31.368Z,14.57
2018-11-04T03:02:01.286Z,16.00
2018-11-04T03:04:30.947Z,16.47
2018-11-04T03:07:00.594Z,15.10
2018-11-04T03:09:30.279Z,16.73
2018-11-04T03:11:59.956Z,15.93
2018-11-04T03:14:30.240Z,17.47
2018-11-04T03:17:02.436Z,21.57
2018-11-04T03:19:32.118Z,30.63
2018-11-04T03:22:01.751Z,20.23
2018-11-04T03:24:31.476Z,17.53
2018-11-04T03:27:01.173Z,19.40
2018-11-04T03:29:30.860Z,19.40
2018-11-04T03:32:01.971Z,18.43
2018-11-04T03:34:31.850Z,17.93
2018-11-04T03:37:01.627Z,15.33
2018-11-04T03:39:31.269Z,17.83
2018-11-04T03:42:00.941Z,21.43
2018-11-04T03:44:30.500Z,20.67
2018-11-04T03:47:00.093Z,22.83
2018-11-04T03:49:32.230Z,24.17
2018-11-04T03:52:01.810Z,24.50
2018-11-04T03:54:31.456Z,27.10
2018-11-04T03:57:01.297Z,32.17
2018-11-04T03:59:32.711Z,33.20
2018-11-04T04:02:02.487Z,25.27
2018-11-04T04:04:32.150Z,22.80
2018-11-04T04:07:01.823Z,20.23
2018-11-04T04:09:31.510Z,33.40
2018-11-04T04:12:01.142Z,33.70
2018-11-04T04:14:31.103Z,31.23
2018-11-04T04:17:00.824Z,34.37
2018-11-04T04:19:30.472Z,39.60
2018-11-04T04:22:00.182Z,37.37
2018-11-04T04:24:30.143Z,33.80
2018-11-04T04:26:59.753Z,37.50
2018-11-04T04:29:29.412Z,29.17
2018-11-04T04:31:59.715Z,35.13
2018-11-04T04:34:29.378Z,34.83
2018-11-04T04:36:59.086Z,35.27
2018-11-04T04:39:30.027Z,34.27
2018-11-04T04:41:59.747Z,38.33
2018-11-04T04:44:29.482Z,37.37
2018-11-04T04:46:59.144Z,43.53
2018-11-04T04:49:29.357Z,43.10
2018-11-04T04:52:00.494Z,45.53
2018-11-04T04:54:30.447Z,40.60
2018-11-04T04:57:00.298Z,45.10
2018-11-04T04:59:30.103Z,40.97
2018-11-04T05:02:00.554Z,39.57
2018-11-04T05:04:30.240Z,39.13
2018-11-04T05:07:00.023Z,39.77
2018-11-04T05:09:29.686Z,35.67
2018-11-04T05:11:59.344Z,39.83
2018-11-04T05:14:29.018Z,35.27
2018-11-04T05:16:58.935Z,43.20
2018-11-04T05:19:28.629Z,39.00
2018-11-04T05:21:58.519Z,43.57
2018-11-04T05:24:28.125Z,39.83
2018-11-04T05:26:59.093Z,37.40
2018-11-04T05:29:28.734Z,35.80
2018-11-04T05:31:58.413Z,39.90
2018-11-04T05:34:28.204Z,38.97
2018-11-04T05:36:58.182Z,41.63
2018-11-04T05:39:27.863Z,44.33
2018-11-04T05:41:57.545Z,40.27
2018-11-04T05:44:27.169Z,43.13
2018-11-04T05:46:57.046Z,42.47
2018-11-04T05:49:27.564Z,38.37
2018-11-04T05:51:57.202Z,40.63
2018-11-04T05:54:26.887Z,45.30
2018-11-04T05:56:56.871Z,46.87
2018-11-04T05:59:26.614Z,44.83
2018-11-04T06:01:56.268Z,44.33
2018-11-04T06:04:25.895Z,46.57
2018-11-04T06:06:55.563Z,38.07
2018-11-04T06:09:25.172Z,41.97
2018-11-04T06:11:55.269Z,45.90
2018-11-04T06:14:24.862Z,37.87
2018-11-04T06:16:54.506Z,41.60
2018-11-04T06:19:24.314Z,39.70
2018-11-04T06:21:58.813Z,38.57
2018-11-04T06:24:28.506Z,41.27
2018-11-04T06:26:58.142Z,39.07
2018-11-04T06:29:27.794Z,39.63
2018-11-04T06:31:57.780Z,39.87
2018-11-04T06:34:27.568Z,42.07
2018-11-04T06:36:57.280Z,37.87
2018-11-04T06:39:26.927Z,38.73
2018-11-04T06:41:56.715Z,39.37
2018-11-04T06:44:26.439Z,37.00
2018-11-04T06:46:57.447Z,34.50
2018-11-04T06:49:27.267Z,36.43
2018-11-04T06:51:57.170Z,39.67
2018-11-04T06:54:26.850Z,39.23
2018-11-04T06:56:56.504Z,39.83
2018-11-04T06:59:26.477Z,40.77
2018-11-04T07:01:56.491Z,37.37
2018-11-04T07:04:27.566Z,29.83
2018-11-04T07:06:57.360Z,32.23
2018-11-04T07:09:29.722Z,29.20
2018-11-04T07:12:00.461Z,40.00
2018-11-04T07:14:30.775Z,36.40
2018-11-04T07:17:00.499Z,37.20
2018-11-04T07:19:30.211Z,37.40
2018-11-04T07:22:00.412Z,36.53
2018-11-04T07:24:30.210Z,39.43
2018-11-04T07:26:59.813Z,38.37
2018-11-04T07:29:29.835Z,39.40
2018-11-04T07:32:09.512Z,38.57
2018-11-04T07:34:39.363Z,34.93
2018-11-04T07:37:16.150Z,37.27
2018-11-04T07:39:46.934Z,32.77
2018-11-04T07:42:17.466Z,35.23
2018-11-04T07:44:54.371Z,36.47
2018-11-04T07:47:25.084Z,39.33
2018-11-04T07:49:55.474Z,39.93
2018-11-04T07:52:25.300Z,33.73
2018-11-04T07:54:55.613Z,33.40
2018-11-04T07:57:30.828Z,37.53
2018-11-04T08:00:01.292Z,36.57
2018-11-04T08:02:31.923Z,39.00
2018-11-04T08:05:04.261Z,31.77
2018-11-04T08:07:34.111Z,36.70
2018-11-04T08:10:07.809Z,32.17
2018-11-04T08:12:37.719Z,32.90
2018-11-04T08:15:08.002Z,32.97
2018-11-04T08:17:38.262Z,39.43
2018-11-04T08:20:10.431Z,38.37
2018-11-04T08:22:40.886Z,34.03
2018-11-04T08:25:16.419Z,37.03
2018-11-04T08:27:46.431Z,37.40
2018-11-04T08:30:16.082Z,35.23
2018-11-04T08:32:46.163Z,35.70
2018-11-04T08:35:17.262Z,36.47
2018-11-04T08:37:46.859Z,37.07
2018-11-04T08:40:18.115Z,35.40
2018-11-04T08:42:47.810Z,30.23
2018-11-04T08:45:17.483Z,35.40
2018-11-04T08:47:48.812Z,32.37
2018-11-04T08:50:18.510Z,33.63
2018-11-04T08:52:48.263Z,34.17
2018-11-04T08:55:18.279Z,33.10
2018-11-04T08:57:48.600Z,31.23
2018-11-04T09:00:19.404Z,34.33
2018-11-04T09:02:49.406Z,35.90
2018-11-04T09:05:19.121Z,38.33
2018-11-04T09:07:48.727Z,34.13
2018-11-04T09:10:20.147Z,34.53
2018-11-04T09:12:51.701Z,32.63
2018-11-04T09:15:26.325Z,31.00
2018-11-04T09:17:56.067Z,31.37
2018-11-04T09:20:25.862Z,26.77
2018-11-04T09:23:03.138Z,30.37
2018-11-04T09:25:33.183Z,30.87
2018-11-04T09:28:22.963Z,24.43
2018-11-04T09:30:52.845Z,26.97
2018-11-04T09:33:22.596Z,26.40
2018-11-04T09:35:52.997Z,22.93
2018-11-04T09:38:22.736Z,23.90
2018-11-04T09:40:52.550Z,23.77
2018-11-04T09:43:40.390Z,25.07
2018-11-04T09:46:10.939Z,24.30
2018-11-04T09:48:40.718Z,23.87
2018-11-04T09:51:15.927Z,23.37
2018-11-04T09:53:45.591Z,23.30
2018-11-04T09:56:15.414Z,24.17
2018-11-04T09:58:45.707Z,27.73
2018-11-04T10:01:35.161Z,24.23
2018-11-04T10:04:45.401Z,24.20
2018-11-04T10:07:22.971Z,24.37
2018-11-04T10:09:52.760Z,22.50
2018-11-04T10:12:22.798Z,25.93
2018-11-04T10:14:52.445Z,23.33
2018-11-04T10:17:25.210Z,24.43
2018-11-04T10:19:55.617Z,25.17
2018-11-04T10:22:27.606Z,25.77
2018-11-04T10:24:57.312Z,23.40
2018-11-04T10:27:27.829Z,22.50
2018-11-04T10:29:57.570Z,23.33
2018-11-04T10:32:28.649Z,23.43
2018-11-04T10:34:59.442Z,22.43
2018-11-04T10:37:30.298Z,21.57
2018-11-04T10:40:00.831Z,21.63
2018-11-04T10:42:37.764Z,22.30
2018-11-04T10:45:09.110Z,22.40
2018-11-04T10:47:39.063Z,22.77
2018-11-04T10:50:10.867Z,25.07
2018-11-04T10:52:40.615Z,21.97
2018-11-04T10:55:12.331Z,20.97
2018-11-04T10:57:43.368Z,19.67
2018-11-04T11:00:20.586Z,24.13
2018-11-04T11:02:50.776Z,23.07
2018-11-04T11:05:20.672Z,19.47
2018-11-04T11:07:52.687Z,19.37
2018-11-04T11:10:22.909Z,20.57
2018-11-04T11:12:52.881Z,21.67
2018-11-04T11:15:22.686Z,23.50
2018-11-04T11:17:52.839Z,21.73
2018-11-04T11:20:23.053Z,23.17
2018-11-04T11:22:53.270Z,17.83
2018-11-04T11:25:23.020Z,20.93
2018-11-04T11:27:53.260Z,21.70
2018-11-04T11:30:23.598Z,21.67
2018-11-04T11:35:47.295Z,22.23
2018-11-04T11:38:18.795Z,22.57
2018-11-04T11:40:52.094Z,23.70
2018-11-04T11:43:22.183Z,25.63
2018-11-04T11:45:51.997Z,24.73
2018-11-04T11:48:23.323Z,22.90
2018-11-04T11:50:53.806Z,23.30
2018-11-04T11:53:27.027Z,25.00
2018-11-04T11:55:57.974Z,23.73
2018-11-04T11:58:29.674Z,24.63
2018-11-04T12:01:07.704Z,25.87
2018-11-04T12:03:59.363Z,23.67
2018-11-04T12:06:52.684Z,24.70
2018-11-04T12:09:25.347Z,28.03
2018-11-04T12:11:56.666Z,24.63
2018-11-04T12:14:27.533Z,24.77
2018-11-04T12:17:29.089Z,26.40
2018-11-04T12:20:02.463Z,25.70
2018-11-04T12:22:33.958Z,27.03
2018-11-04T12:25:10.813Z,28.03
2018-11-04T12:27:49.475Z,30.30
2018-11-04T12:30:20.782Z,29.43
2018-11-04T12:32:54.661Z,31.63
2018-11-04T12:35:25.354Z,32.30
2018-11-04T12:38:13.025Z,29.00
2018-11-04T12:40:47.173Z,32.57
2018-11-04T12:43:33.765Z,29.43
2018-11-04T12:46:08.405Z,28.73
2018-11-04T13:02:44.377Z,27.63
2018-11-04T13:05:15.362Z,30.40
2018-11-04T13:07:46.979Z,33.10
2018-11-04T13:10:18.161Z,29.87
2018-11-04T13:12:48.331Z,27.10
2018-11-04T13:15:19.487Z,25.50
2018-11-04T13:17:49.327Z,27.57
2018-11-04T13:20:19.705Z,25.37
2018-11-04T13:22:50.043Z,27.07
2018-11-04T13:25:19.712Z,29.20
2018-11-04T13:27:51.178Z,27.00
2018-11-04T13:30:20.967Z,29.93
2018-11-04T13:32:50.709Z,31.00
2018-11-04T13:35:25.906Z,32.53
2018-11-04T13:40:47.118Z,28.50
2018-11-04T13:43:18.455Z,27.87
2018-11-04T13:45:48.372Z,30.60
2018-11-04T13:48:19.581Z,26.93
2018-11-04T13:50:49.411Z,26.90
2018-11-04T13:53:19.823Z,25.47
2018-11-04T13:55:50.001Z,25.27
2018-11-04T13:58:19.679Z,25.67
2018-11-04T14:00:50.453Z,28.30
2018-11-04T14:03:20.902Z,32.33
2018-11-04T14:05:59.578Z,23.90
2018-11-04T14:08:29.322Z,27.33
2018-11-04T14:10:59.094Z,25.17
2018-11-04T14:13:29.943Z,24.83
2018-11-04T14:16:00.513Z,24.93
2018-11-04T14:18:30.554Z,24.83
2018-11-04T14:21:01.803Z,25.77
2018-11-04T14:23:31.622Z,25.70
2018-11-04T14:26:01.395Z,26.60
2018-11-04T14:28:31.114Z,25.27
2018-11-04T14:31:01.270Z,28.60
2018-11-04T14:33:30.983Z,23.97
2018-11-04T14:36:01.325Z,25.50
2018-11-04T14:38:31.227Z,25.53
2018-11-04T14:41:01.935Z,25.50
2018-11-04T14:43:31.628Z,26.53
2018-11-04T14:46:01.941Z,21.00
2018-11-04T14:48:31.601Z,26.40
2018-11-04T14:51:01.620Z,23.57
2018-11-04T14:53:32.544Z,22.33
2018-11-04T14:56:02.354Z,23.93
2018-11-04T14:58:32.074Z,23.13
2018-11-04T15:01:04.317Z,26.20
2018-11-04T15:03:34.078Z,22.67
2018-11-04T15:06:03.865Z,25.17
2018-11-04T15:08:34.028Z,22.43
2018-11-04T15:11:03.866Z,24.30
2018-11-04T15:13:34.326Z,22.43
2018-11-04T15:16:09.644Z,23.90
2018-11-04T15:18:39.380Z,21.63
2018-11-04T15:21:09.840Z,24.90
2018-11-04T15:23:50.645Z,18.87
2018-11-04T15:26:21.507Z,19.83
2018-11-04T15:28:53.020Z,20.03
2018-11-04T15:31:24.226Z,21.00
2018-11-04T15:33:56.230Z,18.57
2018-11-04T15:36:26.647Z,19.07
2018-11-04T15:38:57.147Z,20.83
2018-11-04T15:44:15.287Z,20.33
2018-11-04T15:46:45.926Z,15.63
2018-11-04T15:49:16.083Z,21.33
2018-11-04T15:51:57.407Z,19.80
2018-11-04T15:54:31.186Z,19.43
2018-11-04T15:57:08.076Z,20.07
2018-11-04T15:59:37.699Z,21.33
2018-11-04T16:02:07.399Z,18.40
2018-11-04T16:04:44.541Z,21.40
2018-11-04T16:07:09.368Z,18.20
2018-11-04T16:09:39.571Z,18.83
2018-11-04T16:12:10.070Z,20.73
2018-11-04T16:14:40.559Z,19.77
2018-11-04T16:17:10.855Z,19.33
2018-11-04T16:19:40.748Z,19.30
2018-11-04T16:22:10.416Z,20.43
2018-11-04T16:24:47.425Z,19.40
2018-11-04T16:27:48.801Z,20.37
2018-11-04T16:30:31.008Z,19.47
2018-11-04T16:33:08.827Z,21.43
2018-11-04T16:35:38.796Z,19.53
2018-11-04T16:38:09.441Z,21.90
2018-11-04T16:40:40.300Z,22.67
2018-11-04T16:43:19.032Z,21.77
2018-11-04T16:45:49.556Z,23.60
2018-11-04T16:48:20.842Z,20.17
2018-11-04T16:50:52.100Z,20.80
2018-11-04T16:53:25.236Z,24.27
2018-11-04T16:55:56.087Z,21.27
2018-11-04T16:58:25.807Z,19.37
2018-11-04T17:00:56.519Z,20.20
2018-11-04T17:03:35.801Z,22.80
2018-11-04T17:06:08.749Z,22.53
2018-11-04T17:08:39.496Z,21.20
2018-11-04T17:11:12.035Z,22.57
2018-11-04T17:13:42.880Z,21.73
2018-11-04T17:16:13.308Z,21.67
2018-11-04T17:18:43.164Z,21.97
2018-11-04T17:21:13.454Z,22.90
2018-11-04T17:23:44.374Z,23.57
2018-11-04T17:26:30.294Z,22.77
2018-11-04T17:29:02.975Z,21.47
2018-11-04T17:31:39.483Z,21.67
2018-11-04T17:39:39.396Z,23.10
2018-11-04T17:42:09.677Z,24.43
2018-11-04T17:44:53.077Z,20.90
2018-11-04T17:47:24.588Z,23.70
2018-11-04T17:49:54.594Z,22.20
2018-11-04T17:52:25.187Z,23.97
2018-11-04T17:54:57.176Z,24.83
2018-11-04T18:03:50.700Z,24.13
2018-11-04T18:06:20.778Z,23.70
2018-11-04T18:08:57.417Z,21.53
2018-11-04T18:11:28.662Z,25.00
2018-11-04T18:13:58.997Z,26.20
2018-11-04T18:16:31.927Z,23.53
2018-11-04T18:19:06.074Z,23.03
2018-11-04T18:21:36.680Z,21.40
2018-11-04T18:27:21.265Z,20.00
2018-11-04T18:29:53.077Z,21.10
2018-11-04T18:32:23.524Z,22.80
2018-11-04T18:34:53.647Z,24.70
2018-11-04T18:37:23.679Z,21.17
2018-11-04T18:39:54.654Z,22.47
2018-11-04T18:42:24.751Z,22.03
2018-11-04T18:45:00.903Z,19.97
2018-11-04T18:47:32.845Z,19.37
2018-11-04T18:50:05.768Z,20.93
2018-11-04T18:52:38.386Z,19.97
2018-11-04T18:55:10.532Z,23.40
2018-11-04T18:57:44.518Z,19.77
2018-11-04T19:00:44.619Z,20.80
2018-11-04T19:03:15.097Z,19.50
2018-11-04T19:05:45.398Z,24.17
2018-11-04T19:08:15.371Z,20.73
2018-11-04T19:13:41.514Z,21.67
2018-11-04T19:16:13.290Z,19.40
2018-11-04T19:18:44.218Z,21.73
2018-11-04T19:21:22.721Z,19.37
2018-11-04T19:23:57.112Z,25.27
2018-11-04T19:26:27.274Z,20.43
2018-11-04T19:28:58.341Z,22.10
2018-11-04T19:33:55.327Z,20.97
2018-11-04T19:39:19.679Z,20.43
2018-11-04T19:41:50.828Z,19.47
2018-11-04T19:44:23.621Z,17.47
2018-11-04T19:46:53.528Z,20.77
2018-11-04T19:49:25.445Z,21.00
2018-11-04T19:52:04.648Z,16.90
2018-11-04T19:54:35.352Z,18.13
2018-11-04T19:57:06.405Z,17.57
2018-11-04T19:59:37.243Z,18.13
2018-11-04T20:02:07.859Z,17.80
2018-11-04T20:04:37.936Z,17.63
2018-11-04T20:07:09.029Z,17.80
2018-11-04T20:09:39.128Z,20.83
2018-11-04T20:12:13.242Z,19.17
2018-11-04T20:14:44.080Z,23.87
2018-11-04T20:17:30.826Z,17.30
2018-11-04T20:20:17.073Z,18.90
2018-11-04T20:22:47.607Z,23.47
2018-11-04T20:25:23.627Z,18.90
2018-11-04T20:27:56.102Z,21.27
2018-11-04T20:30:26.057Z,19.53
2018-11-04T20:33:01.613Z,20.10
2018-11-04T20:35:31.468Z,21.23
2018-11-04T20:38:01.261Z,19.77
2018-11-04T20:40:36.436Z,21.57
2018-11-04T20:43:06.597Z,19.90
2018-11-04T20:45:37.551Z,21.03
2018-11-04T20:48:13.753Z,18.90
2018-11-04T20:50:53.510Z,20.23
2018-11-04T20:53:24.518Z,18.87
2018-11-04T20:56:01.108Z,19.53
2018-11-04T20:58:30.875Z,19.93
2018-11-04T21:01:01.233Z,23.00
2018-11-04T21:03:35.425Z,20.13
2018-11-04T21:06:08.340Z,22.47
2018-11-04T21:08:42.063Z,19.63
2018-11-04T21:11:13.437Z,22.10
2018-11-04T21:13:50.496Z,21.40
2018-11-04T21:16:57.388Z,20.03
2018-11-04T21:19:30.999Z,22.23
2018-11-04T21:22:01.514Z,22.60
2018-11-04T21:24:37.314Z,23.70
2018-11-04T21:27:09.865Z,24.30
2018-11-04T21:29:52.663Z,22.63
2018-11-04T21:32:23.272Z,20.70
2018-11-04T21:35:16.826Z,21.03
2018-11-04T21:37:51.902Z,22.20
2018-11-04T21:40:24.020Z,21.07
2018-11-04T21:48:57.410Z,20.17
2018-11-04T21:51:29.545Z,20.00
2018-11-04T21:53:59.976Z,19.87
2018-11-04T21:56:34.068Z,21.60
2018-11-04T21:59:16.295Z,21.47
2018-11-04T22:01:47.456Z,20.03
2018-11-04T22:04:18.126Z,20.03
2018-11-04T22:06:49.594Z,22.07
2018-11-04T22:09:41.391Z,22.47
2018-11-04T22:12:12.850Z,24.50
2018-11-04T22:14:43.083Z,25.63
2018-11-04T22:17:13.797Z,24.33
2018-11-04T22:20:14.536Z,24.97
2018-11-04T22:22:47.307Z,26.60
2018-11-04T22:28:07.155Z,24.30
2018-11-04T22:30:36.787Z,23.33
2018-11-04T22:33:10.208Z,25.83
2018-11-04T22:35:40.916Z,27.10
2018-11-04T22:38:10.479Z,29.17
2018-11-04T22:40:41.609Z,28.80
2018-11-04T22:51:44.125Z,29.13
2018-11-04T22:54:31.596Z,36.73
2018-11-04T22:57:21.852Z,28.27
2018-11-04T22:59:53.078Z,28.70
2018-11-04T23:02:41.111Z,31.50
2018-11-04T23:05:17.679Z,28.83
2018-11-04T23:07:51.713Z,28.37
2018-11-04T23:10:23.332Z,30.37
2018-11-04T23:12:53.343Z,29.37
2018-11-04T23:15:32.816Z,25.57
2018-11-04T23:18:15.234Z,26.27
2018-11-04T23:21:11.543Z,31.37
2018-11-04T23:26:42.558Z,28.67
2018-11-04T23:29:13.015Z,29.10
2018-11-04T23:31:45.759Z,29.80
2018-11-04T23:34:21.009Z,30.33
2018-11-04T23:36:52.216Z,29.80
2018-11-04T23:41:09.232Z,29.60
2018-11-04T23:43:46.621Z,31.07
2018-11-04T23:46:18.334Z,29.10
2018-11-04T23:48:55.526Z,27.10
2018-11-04T23:51:26.486Z,24.50
2018-11-04T23:53:56.176Z,25.23
2018-11-04T23:56:27.101Z,28.47
2018-11-04T23:58:57.384Z,27.23
